createdAt,value
2017-10-29T00:00:39.459Z,2.70
2017-10-29T00:03:07.742Z,3.37
2017-10-29T00:05:36.056Z,2.13
2017-10-29T00:08:05.138Z,1.73
2017-10-29T00:10:33.465Z,1.60
2017-10-29T00:13:02.515Z,2.33
2017-10-29T00:15:30.926Z,2.23
2017-10-29T00:17:59.219Z,1.40
2017-10-29T00:20:27.543Z,3.27
2017-10-29T00:22:56.599Z,1.80
2017-10-29T00:25:24.900Z,2.40
2017-10-29T00:27:53.291Z,1.80
2017-10-29T00:30:21.688Z,1.77
2017-10-29T00:32:50.006Z,2.17
2017-10-29T00:35:19.055Z,2.33
2017-10-29T00:37:47.335Z,2.30
2017-10-29T00:40:16.063Z,2.90
2017-10-29T00:42:45.859Z,1.97
2017-10-29T00:45:14.148Z,3.17
2017-10-29T00:47:42.456Z,2.30
2017-10-29T00:50:10.753Z,2.43
2017-10-29T00:52:39.062Z,2.73
2017-10-29T00:55:07.346Z,3.17
2017-10-29T00:57:35.650Z,2.70
2017-10-29T01:00:04.741Z,2.97
2017-10-29T01:02:33.065Z,3.10
2017-10-29T01:05:02.112Z,3.77
2017-10-29T01:07:30.427Z,2.60
2017-10-29T01:09:58.819Z,2.57
2017-10-29T01:12:27.132Z,2.17
2017-10-29T01:14:56.211Z,2.50
2017-10-29T01:17:24.599Z,2.87
2017-10-29T01:19:52.884Z,2.50
2017-10-29T01:22:21.200Z,2.10
2017-10-29T01:24:50.248Z,1.90
2017-10-29T01:27:18.560Z,1.60
2017-10-29T01:29:46.865Z,2.10
2017-10-29T01:32:15.180Z,2.00
2017-10-29T01:34:44.227Z,1.30
2017-10-29T01:37:12.960Z,1.40
2017-10-29T01:39:41.247Z,1.70
2017-10-29T01:42:09.544Z,1.27
2017-10-29T01:44:37.852Z,1.40
2017-10-29T01:47:06.931Z,1.63
2017-10-29T01:49:35.265Z,1.73
2017-10-29T01:52:03.556Z,1.33
2017-10-29T01:54:31.835Z,1.13
2017-10-29T01:57:00.932Z,1.40
2017-10-29T01:59:30.028Z,0.73
2017-10-29T02:01:58.314Z,0.80
2017-10-29T02:04:26.705Z,0.93
2017-10-29T02:06:54.991Z,0.70
2017-10-29T02:09:23.384Z,0.70
2017-10-29T02:11:51.672Z,0.80
2017-10-29T02:14:19.991Z,0.67
2017-10-29T02:16:49.053Z,1.00
2017-10-29T02:19:17.668Z,0.83
2017-10-29T02:21:45.957Z,0.80
2017-10-29T02:24:14.230Z,1.43
2017-10-29T02:26:42.540Z,0.97
2017-10-29T02:29:11.637Z,0.80
2017-10-29T02:31:39.956Z,1.00
2017-10-29T02:34:09.012Z,0.60
2017-10-29T02:36:37.420Z,0.70
2017-10-29T02:39:05.703Z,0.70
2017-10-29T02:41:33.993Z,1.00
2017-10-29T02:44:02.440Z,0.60
2017-10-29T02:46:31.468Z,0.77
2017-10-29T02:48:59.781Z,1.03
2017-10-29T02:51:28.070Z,0.70
2017-10-29T02:53:57.600Z,0.50
2017-10-29T02:56:25.883Z,0.60
2017-10-29T02:58:54.190Z,0.40
2017-10-29T03:01:24.182Z,0.50
2017-10-29T03:03:52.803Z,0.60
2017-10-29T03:06:21.094Z,1.47
2017-10-29T03:08:49.377Z,0.50
2017-10-29T03:11:17.695Z,0.60
2017-10-29T03:13:46.870Z,0.50
2017-10-29T03:16:15.190Z,0.73
2017-10-29T03:18:44.240Z,0.40
2017-10-29T03:21:12.548Z,0.53
2017-10-29T03:23:40.954Z,0.40
2017-10-29T03:26:09.246Z,0.87
2017-10-29T03:28:37.735Z,0.50
2017-10-29T03:31:06.034Z,2.50
2017-10-29T03:33:34.424Z,0.60
2017-10-29T03:36:02.806Z,0.80
2017-10-29T03:38:31.204Z,0.97
2017-10-29T03:40:59.528Z,0.60
2017-10-29T03:43:27.892Z,0.60
2017-10-29T03:45:56.685Z,0.50
2017-10-29T03:48:24.980Z,0.47
2017-10-29T03:50:54.039Z,0.50
2017-10-29T03:53:22.367Z,0.50
2017-10-29T03:55:50.675Z,0.50
2017-10-29T03:58:19.724Z,0.70
2017-10-29T04:00:48.454Z,0.47
2017-10-29T04:03:16.735Z,0.30
2017-10-29T11:00:08.508Z,0.40
2017-10-29T11:02:36.824Z,0.30
2017-10-29T11:05:05.131Z,0.40
2017-10-29T11:07:34.205Z,0.40
2017-10-29T11:10:02.791Z,0.40
2017-10-29T11:12:31.887Z,0.40
2017-10-29T11:15:00.199Z,0.30
2017-10-29T11:17:28.495Z,0.40
2017-10-29T11:19:56.795Z,0.40
2017-10-29T11:22:25.179Z,1.57
2017-10-29T11:24:54.228Z,0.50
2017-10-29T11:27:23.604Z,0.40
2017-10-29T11:29:51.887Z,0.40
2017-10-29T11:32:20.251Z,0.30
2017-10-29T11:34:48.675Z,0.47
2017-10-29T11:37:16.963Z,0.43
2017-10-29T11:39:45.306Z,0.50
2017-10-29T11:42:13.797Z,0.40
2017-10-29T11:44:42.119Z,0.37
2017-10-29T11:47:10.395Z,0.40
2017-10-29T11:49:38.675Z,0.40
2017-10-29T11:52:06.988Z,0.37
2017-10-29T11:54:36.050Z,0.50
2017-10-29T11:57:04.496Z,0.40
2017-10-29T11:59:34.321Z,0.40
2017-10-29T12:02:02.650Z,0.30
2017-10-29T12:04:31.819Z,0.40
2017-10-29T12:07:00.106Z,0.70
2017-10-29T12:09:28.459Z,0.40
2017-10-29T12:11:56.790Z,0.33
2017-10-29T12:14:25.200Z,0.40
2017-10-29T12:16:53.506Z,0.40
2017-10-29T12:19:22.988Z,0.83
2017-10-29T12:21:51.265Z,0.33
2017-10-29T12:24:19.530Z,0.30
2017-10-29T12:26:47.855Z,0.60
2017-10-29T12:29:16.126Z,0.40
2017-10-29T12:31:44.739Z,0.40
2017-10-29T12:34:13.059Z,0.33
2017-10-29T12:36:42.103Z,0.40
2017-10-29T12:39:10.407Z,0.33
2017-10-29T12:41:38.760Z,0.40
2017-10-29T12:44:07.055Z,0.30
2017-10-29T12:46:35.363Z,0.40
2017-10-29T12:49:03.664Z,0.40
2017-10-29T12:51:31.971Z,0.30
2017-10-29T12:54:00.280Z,0.40
2017-10-29T12:56:28.590Z,1.60
2017-10-29T12:58:57.647Z,0.30
2017-10-29T13:01:25.948Z,0.30
2017-10-29T13:03:54.340Z,0.30
2017-10-29T13:06:22.619Z,0.30
2017-10-29T13:08:50.915Z,0.30
2017-10-29T13:11:19.199Z,0.30
2017-10-29T13:13:47.527Z,0.30
2017-10-29T13:16:16.599Z,0.40
2017-10-29T13:18:45.089Z,0.77
2017-10-29T13:21:13.382Z,0.30
2017-10-29T13:23:41.731Z,0.30
2017-10-29T13:26:10.007Z,0.30
2017-10-29T13:28:38.324Z,0.30
2017-10-29T13:31:06.651Z,0.40
2017-10-29T13:33:35.082Z,0.40
2017-10-29T13:36:03.368Z,0.40
2017-10-29T13:38:32.668Z,0.40
2017-10-29T13:41:01.802Z,0.30
2017-10-29T13:43:30.131Z,0.30
2017-10-29T13:45:58.468Z,0.40
2017-10-29T13:48:27.551Z,0.30
2017-10-29T13:50:57.392Z,0.30
2017-10-29T13:53:26.467Z,0.30
2017-10-29T13:55:54.767Z,0.40
2017-10-29T13:58:23.046Z,0.40
2017-10-29T14:00:51.343Z,0.30
2017-10-29T14:03:21.135Z,0.40
2017-10-29T14:05:49.963Z,0.40
2017-10-29T14:08:18.251Z,0.40
2017-10-29T14:10:46.530Z,1.20
2017-10-29T14:13:14.839Z,0.40
2017-10-29T14:15:43.135Z,0.30
2017-10-29T14:18:12.527Z,0.40
2017-10-29T14:20:40.803Z,0.33
2017-10-29T14:23:09.087Z,0.40
2017-10-29T14:25:37.395Z,0.40
2017-10-29T14:28:05.699Z,0.40
2017-10-29T14:30:33.979Z,0.30
2017-10-29T14:33:02.287Z,0.80
2017-10-29T14:35:31.339Z,0.30
2017-10-29T14:37:59.763Z,0.40
2017-10-29T14:40:28.044Z,0.40
2017-10-29T14:42:56.344Z,0.40
2017-10-29T14:45:24.619Z,0.40
2017-10-29T14:47:52.923Z,0.40
2017-10-29T14:50:21.202Z,0.40
2017-10-29T14:52:49.539Z,0.40
2017-10-29T14:55:18.583Z,0.40
2017-10-29T14:57:46.915Z,0.40
2017-10-29T15:00:15.996Z,0.43
2017-10-29T15:02:44.303Z,0.50
2017-10-29T15:05:14.131Z,1.17
2017-10-29T15:07:42.462Z,0.57
2017-10-29T15:10:11.107Z,0.43
2017-10-29T15:12:39.393Z,0.40
2017-10-29T15:15:07.663Z,0.70
2017-10-29T15:17:35.964Z,0.57
2017-10-29T15:20:04.239Z,1.00
2017-10-29T15:22:32.577Z,0.30
2017-10-29T15:25:01.611Z,0.40
2017-10-29T15:27:30.251Z,0.67
2017-10-29T15:29:58.527Z,0.53
2017-10-29T15:32:26.806Z,0.40
2017-10-29T15:34:55.108Z,0.50
2017-10-29T15:37:23.623Z,0.40
2017-10-29T15:39:51.900Z,0.50
2017-10-29T15:42:20.171Z,0.53
2017-10-29T15:44:48.487Z,0.40
2017-10-29T15:49:52.842Z,0.50
2017-10-29T15:52:21.155Z,0.57
2017-10-29T15:54:51.324Z,0.50
2017-10-29T15:57:19.593Z,0.50
2017-10-29T15:59:48.655Z,0.60
2017-10-29T16:02:18.127Z,0.50
2017-10-29T16:04:46.406Z,0.50
2017-10-29T16:07:14.683Z,0.40
2017-10-29T16:09:43.751Z,0.50
2017-10-29T16:12:12.031Z,0.40
2017-10-29T16:14:40.308Z,0.50
2017-10-29T16:17:08.607Z,1.80
2017-10-29T16:19:36.886Z,0.40
2017-10-29T16:22:05.511Z,0.50
2017-10-29T16:24:34.174Z,0.53
2017-10-29T16:27:02.446Z,0.60
2017-10-29T16:29:30.747Z,0.50
2017-10-29T16:31:59.335Z,0.50
2017-10-29T16:34:27.615Z,0.63
2017-10-29T16:36:56.655Z,0.50
2017-10-29T16:39:25.173Z,0.87
2017-10-29T16:41:53.483Z,0.60
2017-10-29T16:44:21.823Z,0.40
2017-10-29T16:46:50.143Z,0.50
2017-10-29T16:49:18.418Z,0.60
2017-10-29T16:51:46.698Z,0.40
2017-10-29T16:54:15.011Z,0.60
2017-10-29T16:56:43.294Z,0.50
2017-10-29T16:59:11.591Z,0.50
2017-10-29T17:01:39.868Z,0.50
2017-10-29T17:04:08.183Z,0.50
2017-10-29T17:06:36.555Z,0.53
2017-10-29T17:09:04.859Z,0.60
2017-10-29T17:11:33.135Z,0.60
2017-10-29T17:14:01.435Z,0.60
2017-10-29T17:16:29.720Z,0.60
2017-10-29T17:18:58.035Z,0.60
2017-10-29T17:21:27.834Z,0.57
2017-10-29T17:23:56.118Z,0.87
2017-10-29T17:26:24.422Z,0.57
2017-10-29T17:28:52.796Z,0.67
2017-10-29T17:31:21.095Z,0.60
2017-10-29T17:33:49.410Z,0.53
2017-10-29T17:36:18.485Z,0.70
2017-10-29T17:38:46.791Z,0.50
2017-10-29T17:41:15.107Z,0.70
2017-10-29T17:43:43.424Z,0.60
2017-10-29T17:46:11.746Z,0.60
2017-10-29T17:48:40.061Z,0.67
2017-10-29T17:51:09.102Z,0.73
2017-10-29T17:53:37.403Z,0.47
2017-10-29T17:56:05.743Z,0.60
2017-10-29T17:58:34.787Z,0.70
2017-10-29T18:01:03.234Z,0.60
2017-10-29T18:03:31.602Z,0.90
2017-10-29T18:05:59.910Z,0.60
2017-10-29T18:08:28.219Z,0.70
2017-10-29T18:10:57.262Z,0.70
2017-10-29T18:13:25.575Z,0.60
2017-10-29T18:15:53.854Z,0.60
2017-10-29T18:18:22.166Z,0.80
2017-10-29T18:20:50.443Z,0.67
2017-10-29T18:23:18.728Z,0.80
2017-10-29T18:25:47.035Z,0.50
2017-10-29T18:28:15.338Z,0.80
2017-10-29T18:30:44.387Z,0.60
2017-10-29T18:33:13.940Z,0.80
2017-10-29T18:35:43.255Z,0.70
2017-10-29T18:38:11.848Z,0.70
2017-10-29T18:40:40.131Z,0.70
2017-10-29T18:43:08.403Z,0.93
2017-10-29T18:45:36.727Z,0.77
2017-10-29T18:48:05.003Z,0.70
2017-10-29T18:50:33.282Z,0.90
2017-10-29T18:53:01.582Z,0.90
2017-10-29T18:55:29.884Z,0.80
2017-10-29T18:57:58.166Z,0.60
2017-10-29T19:00:26.468Z,0.70
2017-10-29T19:02:54.744Z,0.50
2017-10-29T19:05:23.043Z,0.70
2017-10-29T19:07:51.336Z,0.70
2017-10-29T19:10:19.635Z,0.70
2017-10-29T19:12:48.678Z,0.93
2017-10-29T19:15:16.983Z,0.60
2017-10-29T19:17:45.259Z,0.70
2017-10-29T19:20:13.565Z,0.60
2017-10-29T19:22:41.842Z,0.70
2017-10-29T19:25:10.143Z,0.50
2017-10-29T19:27:38.423Z,0.70
2017-10-29T19:30:06.735Z,0.93
2017-10-29T19:32:35.035Z,0.70
2017-10-29T19:35:03.341Z,0.50
2017-10-29T19:37:32.386Z,0.57
2017-10-29T19:40:00.724Z,0.60
2017-10-29T19:42:29.039Z,0.50
2017-10-29T19:44:58.098Z,0.63
2017-10-29T19:47:26.391Z,0.60
2017-10-29T19:49:54.704Z,2.13
2017-10-29T19:52:23.023Z,0.50
2017-10-29T19:54:51.315Z,0.50
2017-10-29T19:57:20.378Z,0.70
2017-10-29T19:59:48.652Z,0.60
2017-10-29T20:02:17.005Z,0.70
2017-10-29T20:04:45.358Z,0.70
2017-10-29T20:07:13.667Z,0.60
2017-10-29T20:09:42.839Z,0.50
2017-10-29T20:12:11.150Z,0.43
2017-10-29T20:14:39.432Z,0.60
2017-10-29T20:17:07.706Z,0.57
2017-10-29T20:19:36.302Z,0.50
2017-10-29T20:22:05.100Z,0.50
2017-10-29T20:24:33.391Z,0.53
2017-10-29T20:27:01.729Z,0.50
2017-10-29T20:29:30.803Z,0.83
2017-10-29T20:31:59.083Z,0.60
2017-10-29T20:34:27.392Z,0.60
2017-10-29T20:36:55.756Z,0.60
2017-10-29T20:39:24.067Z,0.60
2017-10-29T20:41:52.351Z,0.60
2017-10-29T20:44:20.673Z,0.50
2017-10-29T20:46:48.950Z,0.57
2017-10-29T20:49:18.025Z,0.60
2017-10-29T20:51:46.295Z,0.50
2017-10-29T20:54:14.615Z,0.60
2017-10-29T20:56:42.899Z,0.50
2017-10-29T20:59:12.687Z,0.60
2017-10-29T21:01:40.999Z,0.60
2017-10-29T21:04:09.310Z,0.60
2017-10-29T21:06:37.593Z,0.50
2017-10-29T21:09:05.903Z,0.50
2017-10-29T21:11:34.951Z,0.60
2017-10-29T21:14:03.256Z,0.60
2017-10-29T21:16:31.571Z,0.60
2017-10-29T21:18:59.839Z,0.60
2017-10-29T21:21:28.139Z,0.40
2017-10-29T21:23:56.419Z,0.97
2017-10-29T21:26:25.024Z,0.40
2017-10-29T21:28:53.299Z,0.60
2017-10-29T21:31:21.586Z,0.60
2017-10-29T21:33:49.895Z,0.40
2017-10-29T21:36:18.162Z,0.57
2017-10-29T21:38:46.438Z,1.40
2017-10-29T21:41:14.751Z,0.60
2017-10-29T21:43:43.048Z,0.60
2017-10-29T21:46:11.353Z,0.50
2017-10-29T21:48:39.626Z,0.50
2017-10-29T21:51:07.938Z,0.60
2017-10-29T21:53:37.027Z,0.60
2017-10-29T21:56:05.311Z,0.60
2017-10-29T21:58:33.612Z,0.50
2017-10-29T22:01:01.987Z,0.50
2017-10-29T22:03:30.287Z,0.60
2017-10-29T22:05:58.587Z,0.70
2017-10-29T22:08:26.900Z,1.00
2017-10-29T22:10:55.959Z,0.60
2017-10-29T22:13:24.238Z,0.40
2017-10-29T22:15:52.534Z,0.50
2017-10-29T22:18:20.811Z,0.70
2017-10-29T22:20:49.117Z,0.50
2017-10-29T22:23:17.394Z,0.53
2017-10-29T22:25:45.799Z,0.53
2017-10-29T22:28:14.069Z,0.60
2017-10-29T22:30:42.352Z,0.57
2017-10-29T22:33:10.667Z,1.00
2017-10-29T22:35:38.944Z,0.53
2017-10-29T22:38:07.335Z,1.00
2017-10-29T22:40:35.615Z,0.50
2017-10-29T22:43:03.917Z,0.70
2017-10-29T22:45:32.223Z,0.50
2017-10-29T22:48:01.324Z,0.97
2017-10-29T22:50:29.634Z,0.50
2017-10-29T22:52:58.685Z,0.60
2017-10-29T22:55:26.963Z,0.50
2017-10-29T22:57:55.259Z,0.60
2017-10-29T23:00:23.538Z,1.13
2017-10-29T23:02:51.844Z,0.60
2017-10-29T23:05:32.151Z,0.70
2017-10-29T23:08:10.362Z,0.60
2017-10-29T23:10:38.687Z,0.97
2017-10-29T23:13:07.735Z,0.60
2017-10-29T23:15:36.011Z,0.40
2017-10-29T23:18:04.343Z,0.67
2017-10-29T23:20:32.618Z,0.57
2017-10-29T23:23:00.919Z,0.50
2017-10-29T23:25:29.200Z,0.60
2017-10-29T23:27:57.896Z,0.63
2017-10-29T23:30:26.202Z,0.40
2017-10-29T23:32:54.480Z,0.87
2017-10-29T23:35:22.774Z,0.60
2017-10-29T23:37:51.087Z,0.60
2017-10-29T23:40:19.362Z,0.50
2017-10-29T23:42:49.182Z,0.70
2017-10-29T23:45:17.467Z,2.20
2017-10-29T23:47:45.775Z,0.50
2017-10-29T23:50:16.182Z,0.47
2017-10-29T23:52:44.453Z,0.60
2017-10-29T23:55:12.791Z,0.70
2017-10-29T23:57:41.090Z,0.60
